sensor_id;sensor_type;location;lat;lon;timestamp;P1;durP1;ratioP1;P2;durP2;ratioP2
33162;SDS011;29282;45.656;11.302;2023-08-24T00:01:02;6.95;;;6.35;;
33162;SDS011;29282;45.656;11.302;2023-08-24T00:03:28;6.78;;;6.10;;
33162;SDS011;29282;45.656;11.302;2023-08-24T00:05:53;6.72;;;6.10;;
33162;SDS011;29282;45.656;11.302;2023-08-24T00:08:19;7.32;;;6.63;;
33162;SDS011;29282;45.656;11.302;2023-08-24T00:10:45;6.70;;;5.93;;
33162;SDS011;29282;45.656;11.302;2023-08-24T00:13:12;6.75;;;6.18;;
33162;SDS011;29282;45.656;11.302;2023-08-24T00:15:37;6.80;;;6.20;;
33162;SDS011;29282;45.656;11.302;2023-08-24T00:18:04;6.60;;;6.00;;
33162;SDS011;29282;45.656;11.302;2023-08-24T00:20:30;6.68;;;6.07;;
33162;SDS011;29282;45.656;11.302;2023-08-24T00:22:57;6.50;;;5.90;;
33162;SDS011;29282;45.656;11.302;2023-08-24T00:25:24;6.75;;;6.05;;
33162;SDS011;29282;45.656;11.302;2023-08-24T00:27:50;7.25;;;6.55;;
33162;SDS011;29282;45.656;11.302;2023-08-24T00:30:18;6.88;;;6.28;;
33162;SDS011;29282;45.656;11.302;2023-08-24T00:32:43;7.90;;;6.90;;
33162;SDS011;29282;45.656;11.302;2023-08-24T00:35:09;8.13;;;7.40;;
33162;SDS011;29282;45.656;11.302;2023-08-24T00:37:36;7.78;;;7.07;;
33162;SDS011;29282;45.656;11.302;2023-08-24T00:40:02;8.10;;;7.30;;
33162;SDS011;29282;45.656;11.302;2023-08-24T00:42:31;9.75;;;7.43;;
33162;SDS011;29282;45.656;11.302;2023-08-24T00:44:57;9.05;;;7.85;;
33162;SDS011;29282;45.656;11.302;2023-08-24T00:47:23;8.68;;;7.78;;
33162;SDS011;29282;45.656;11.302;2023-08-24T00:49:50;8.63;;;7.82;;
33162;SDS011;29282;45.656;11.302;2023-08-24T00:52:16;8.45;;;7.55;;
33162;SDS011;29282;45.656;11.302;2023-08-24T00:54:43;8.95;;;8.00;;
33162;SDS011;29282;45.656;11.302;2023-08-24T00:57:11;8.13;;;7.43;;
33162;SDS011;29282;45.656;11.302;2023-08-24T00:59:37;8.30;;;7.43;;
33162;SDS011;29282;45.656;11.302;2023-08-24T01:02:03;9.10;;;8.20;;
33162;SDS011;29282;45.656;11.302;2023-08-24T01:04:28;8.70;;;7.90;;
33162;SDS011;29282;45.656;11.302;2023-08-24T01:06:54;9.63;;;8.57;;
33162;SDS011;29282;45.656;11.302;2023-08-24T01:09:19;8.40;;;7.65;;
33162;SDS011;29282;45.656;11.302;2023-08-24T01:12:05;8.52;;;7.57;;
33162;SDS011;29282;45.656;11.302;2023-08-24T01:18:00;10.20;;;8.45;;
33162;SDS011;29282;45.656;11.302;2023-08-24T01:20:29;9.02;;;8.13;;
33162;SDS011;29282;45.656;11.302;2023-08-24T01:25:52;9.27;;;8.38;;
33162;SDS011;29282;45.656;11.302;2023-08-24T01:28:22;10.30;;;8.70;;
33162;SDS011;29282;45.656;11.302;2023-08-24T01:30:48;11.07;;;9.20;;
33162;SDS011;29282;45.656;11.302;2023-08-24T01:33:14;10.25;;;8.88;;
33162;SDS011;29282;45.656;11.302;2023-08-24T01:35:40;10.63;;;9.57;;
33162;SDS011;29282;45.656;11.302;2023-08-24T01:38:06;12.10;;;9.02;;
33162;SDS011;29282;45.656;11.302;2023-08-24T01:43:13;9.57;;;8.68;;
33162;SDS011;29282;45.656;11.302;2023-08-24T01:45:41;10.38;;;9.35;;
33162;SDS011;29282;45.656;11.302;2023-08-24T01:48:08;9.75;;;8.80;;
33162;SDS011;29282;45.656;11.302;2023-08-24T01:50:34;10.63;;;9.27;;
33162;SDS011;29282;45.656;11.302;2023-08-24T01:53:01;10.35;;;9.20;;
33162;SDS011;29282;45.656;11.302;2023-08-24T01:55:28;10.90;;;9.05;;
33162;SDS011;29282;45.656;11.302;2023-08-24T01:57:54;11.30;;;8.75;;
33162;SDS011;29282;45.656;11.302;2023-08-24T02:00:20;10.20;;;9.10;;
33162;SDS011;29282;45.656;11.302;2023-08-24T02:02:46;10.00;;;9.00;;
33162;SDS011;29282;45.656;11.302;2023-08-24T02:05:12;10.20;;;9.20;;
33162;SDS011;29282;45.656;11.302;2023-08-24T02:07:38;10.70;;;9.02;;
33162;SDS011;29282;45.656;11.302;2023-08-24T02:10:05;12.90;;;9.18;;
33162;SDS011;29282;45.656;11.302;2023-08-24T02:12:30;9.60;;;8.70;;
33162;SDS011;29282;45.656;11.302;2023-08-24T02:14:56;10.93;;;9.57;;
33162;SDS011;29282;45.656;11.302;2023-08-24T02:17:21;12.48;;;10.00;;
33162;SDS011;29282;45.656;11.302;2023-08-24T02:19:47;10.15;;;9.15;;
33162;SDS011;29282;45.656;11.302;2023-08-24T02:22:12;11.18;;;9.60;;
33162;SDS011;29282;45.656;11.302;2023-08-24T02:24:38;10.10;;;9.10;;
33162;SDS011;29282;45.656;11.302;2023-08-24T02:27:04;11.95;;;9.02;;
33162;SDS011;29282;45.656;11.302;2023-08-24T02:29:29;10.73;;;9.57;;
33162;SDS011;29282;45.656;11.302;2023-08-24T02:31:55;10.00;;;9.00;;
33162;SDS011;29282;45.656;11.302;2023-08-24T02:34:21;10.63;;;9.63;;
33162;SDS011;29282;45.656;11.302;2023-08-24T02:36:46;11.90;;;9.90;;
33162;SDS011;29282;45.656;11.302;2023-08-24T02:39:12;11.20;;;9.70;;
33162;SDS011;29282;45.656;11.302;2023-08-24T02:41:37;10.38;;;9.32;;
33162;SDS011;29282;45.656;11.302;2023-08-24T02:44:03;10.48;;;9.40;;
33162;SDS011;29282;45.656;11.302;2023-08-24T02:46:28;10.60;;;9.60;;
33162;SDS011;29282;45.656;11.302;2023-08-24T02:48:54;10.73;;;9.63;;
33162;SDS011;29282;45.656;11.302;2023-08-24T02:51:23;10.38;;;8.98;;
33162;SDS011;29282;45.656;11.302;2023-08-24T02:53:49;10.65;;;8.93;;
33162;SDS011;29282;45.656;11.302;2023-08-24T02:56:15;9.80;;;8.82;;
33162;SDS011;29282;45.656;11.302;2023-08-24T02:58:40;10.80;;;9.68;;
33162;SDS011;29282;45.656;11.302;2023-08-24T03:01:06;10.93;;;9.82;;
33162;SDS011;29282;45.656;11.302;2023-08-24T03:03:33;11.05;;;9.18;;
33162;SDS011;29282;45.656;11.302;2023-08-24T03:06:00;11.45;;;9.45;;
33162;SDS011;29282;45.656;11.302;2023-08-24T03:08:28;9.95;;;9.00;;
33162;SDS011;29282;45.656;11.302;2023-08-24T03:10:54;10.75;;;9.75;;
33162;SDS011;29282;45.656;11.302;2023-08-24T03:13:19;10.98;;;9.93;;
33162;SDS011;29282;45.656;11.302;2023-08-24T03:15:45;10.80;;;9.07;;
33162;SDS011;29282;45.656;11.302;2023-08-24T03:18:11;12.30;;;10.00;;
33162;SDS011;29282;45.656;11.302;2023-08-24T03:20:38;12.68;;;10.02;;
33162;SDS011;29282;45.656;11.302;2023-08-24T03:23:04;13.00;;;9.75;;
33162;SDS011;29282;45.656;11.302;2023-08-24T03:25:30;10.98;;;9.88;;
33162;SDS011;29282;45.656;11.302;2023-08-24T03:27:56;11.80;;;9.45;;
33162;SDS011;29282;45.656;11.302;2023-08-24T03:30:22;11.07;;;9.63;;
33162;SDS011;29282;45.656;11.302;2023-08-24T03:32:47;10.85;;;9.70;;
33162;SDS011;29282;45.656;11.302;2023-08-24T03:35:13;12.68;;;9.77;;
33162;SDS011;29282;45.656;11.302;2023-08-24T03:37:40;11.02;;;9.32;;
33162;SDS011;29282;45.656;11.302;2023-08-24T03:40:06;11.40;;;10.05;;
33162;SDS011;29282;45.656;11.302;2023-08-24T03:42:32;10.82;;;9.40;;
33162;SDS011;29282;45.656;11.302;2023-08-24T03:44:58;10.63;;;9.57;;
33162;SDS011;29282;45.656;11.302;2023-08-24T03:47:24;11.15;;;9.95;;
33162;SDS011;29282;45.656;11.302;2023-08-24T03:49:50;12.07;;;9.82;;
33162;SDS011;29282;45.656;11.302;2023-08-24T03:52:15;11.00;;;9.82;;
33162;SDS011;29282;45.656;11.302;2023-08-24T03:54:41;11.50;;;10.20;;
33162;SDS011;29282;45.656;11.302;2023-08-24T03:57:06;10.15;;;9.15;;
33162;SDS011;29282;45.656;11.302;2023-08-24T03:59:32;10.85;;;9.85;;
33162;SDS011;29282;45.656;11.302;2023-08-24T04:01:57;11.65;;;10.18;;
33162;SDS011;29282;45.656;11.302;2023-08-24T04:04:27;9.65;;;8.85;;
33162;SDS011;29282;45.656;11.302;2023-08-24T04:06:52;12.40;;;10.15;;
33162;SDS011;29282;45.656;11.302;2023-08-24T04:09:18;11.27;;;9.38;;
33162;SDS011;29282;45.656;11.302;2023-08-24T04:11:43;10.57;;;9.50;;
33162;SDS011;29282;45.656;11.302;2023-08-24T04:14:09;12.95;;;9.80;;
33162;SDS011;29282;45.656;11.302;2023-08-24T04:16:35;11.60;;;10.40;;
33162;SDS011;29282;45.656;11.302;2023-08-24T04:19:01;12.95;;;9.63;;
33162;SDS011;29282;45.656;11.302;2023-08-24T04:21:26;11.07;;;10.00;;
33162;SDS011;29282;45.656;11.302;2023-08-24T04:23:52;10.80;;;9.68;;
33162;SDS011;29282;45.656;11.302;2023-08-24T04:26:18;11.95;;;9.75;;
33162;SDS011;29282;45.656;11.302;2023-08-24T04:28:43;10.82;;;9.70;;
33162;SDS011;29282;45.656;11.302;2023-08-24T04:31:09;11.02;;;10.00;;
33162;SDS011;29282;45.656;11.302;2023-08-24T04:33:35;11.15;;;10.05;;
33162;SDS011;29282;45.656;11.302;2023-08-24T04:36:01;11.15;;;10.15;;
33162;SDS011;29282;45.656;11.302;2023-08-24T04:38:28;14.93;;;10.48;;
33162;SDS011;29282;45.656;11.302;2023-08-24T04:40:54;10.25;;;9.25;;
33162;SDS011;29282;45.656;11.302;2023-08-24T04:43:21;13.02;;;10.55;;
33162;SDS011;29282;45.656;11.302;2023-08-24T04:45:54;13.30;;;9.73;;
33162;SDS011;29282;45.656;11.302;2023-08-24T04:48:20;12.13;;;10.57;;
33162;SDS011;29282;45.656;11.302;2023-08-24T04:50:46;12.85;;;10.82;;
33162;SDS011;29282;45.656;11.302;2023-08-24T04:53:13;10.45;;;9.45;;
33162;SDS011;29282;45.656;11.302;2023-08-24T04:55:40;11.85;;;9.80;;
33162;SDS011;29282;45.656;11.302;2023-08-24T04:58:07;11.00;;;9.65;;
33162;SDS011;29282;45.656;11.302;2023-08-24T05:00:33;10.50;;;9.40;;
33162;SDS011;29282;45.656;11.302;2023-08-24T05:03:00;11.82;;;10.50;;
33162;SDS011;29282;45.656;11.302;2023-08-24T05:05:28;10.65;;;9.65;;
33162;SDS011;29282;45.656;11.302;2023-08-24T05:07:54;10.82;;;9.77;;
33162;SDS011;29282;45.656;11.302;2023-08-24T05:10:20;12.88;;;9.85;;
33162;SDS011;29282;45.656;11.302;2023-08-24T05:12:45;10.57;;;9.57;;
33162;SDS011;29282;45.656;11.302;2023-08-24T05:15:11;11.32;;;10.13;;
33162;SDS011;29282;45.656;11.302;2023-08-24T05:17:38;12.00;;;10.27;;
33162;SDS011;29282;45.656;11.302;2023-08-24T05:20:03;11.23;;;9.95;;
33162;SDS011;29282;45.656;11.302;2023-08-24T05:22:29;11.98;;;9.90;;
33162;SDS011;29282;45.656;11.302;2023-08-24T05:24:55;11.25;;;10.00;;
33162;SDS011;29282;45.656;11.302;2023-08-24T05:27:20;12.70;;;10.65;;
33162;SDS011;29282;45.656;11.302;2023-08-24T05:29:46;10.95;;;9.63;;
33162;SDS011;29282;45.656;11.302;2023-08-24T05:32:11;11.88;;;10.77;;
33162;SDS011;29282;45.656;11.302;2023-08-24T05:34:37;12.13;;;10.85;;
33162;SDS011;29282;45.656;11.302;2023-08-24T05:37:02;12.30;;;10.20;;
33162;SDS011;29282;45.656;11.302;2023-08-24T05:39:27;10.77;;;9.75;;
33162;SDS011;29282;45.656;11.302;2023-08-24T05:41:53;11.45;;;10.18;;
33162;SDS011;29282;45.656;11.302;2023-08-24T05:44:19;11.77;;;9.95;;
33162;SDS011;29282;45.656;11.302;2023-08-24T05:46:46;11.10;;;10.10;;
33162;SDS011;29282;45.656;11.302;2023-08-24T05:49:12;11.02;;;9.90;;
33162;SDS011;29282;45.656;11.302;2023-08-24T05:51:37;11.45;;;10.30;;
33162;SDS011;29282;45.656;11.302;2023-08-24T05:54:03;12.50;;;9.98;;
33162;SDS011;29282;45.656;11.302;2023-08-24T05:56:28;11.65;;;10.02;;
33162;SDS011;29282;45.656;11.302;2023-08-24T05:58:54;11.80;;;10.63;;
33162;SDS011;29282;45.656;11.302;2023-08-24T06:01:20;11.10;;;10.10;;
33162;SDS011;29282;45.656;11.302;2023-08-24T06:03:46;10.98;;;9.80;;
33162;SDS011;29282;45.656;11.302;2023-08-24T06:06:11;11.23;;;9.98;;
33162;SDS011;29282;45.656;11.302;2023-08-24T06:08:37;10.88;;;9.77;;
33162;SDS011;29282;45.656;11.302;2023-08-24T06:11:02;11.40;;;10.30;;
33162;SDS011;29282;45.656;11.302;2023-08-24T06:13:28;11.35;;;10.25;;
33162;SDS011;29282;45.656;11.302;2023-08-24T06:15:53;12.82;;;10.93;;
33162;SDS011;29282;45.656;11.302;2023-08-24T06:18:19;12.90;;;10.45;;
33162;SDS011;29282;45.656;11.302;2023-08-24T06:20:45;11.77;;;10.50;;
33162;SDS011;29282;45.656;11.302;2023-08-24T06:23:11;11.32;;;10.18;;
33162;SDS011;29282;45.656;11.302;2023-08-24T06:25:38;12.25;;;10.35;;
33162;SDS011;29282;45.656;11.302;2023-08-24T06:28:04;11.73;;;10.52;;
33162;SDS011;29282;45.656;11.302;2023-08-24T06:30:29;13.50;;;10.68;;
33162;SDS011;29282;45.656;11.302;2023-08-24T06:33:02;11.10;;;9.98;;
33162;SDS011;29282;45.656;11.302;2023-08-24T06:35:28;10.52;;;8.88;;
33162;SDS011;29282;45.656;11.302;2023-08-24T06:37:54;11.38;;;10.27;;
33162;SDS011;29282;45.656;11.302;2023-08-24T06:40:19;11.23;;;10.07;;
33162;SDS011;29282;45.656;11.302;2023-08-24T06:42:45;11.63;;;10.52;;
33162;SDS011;29282;45.656;11.302;2023-08-24T06:45:10;11.05;;;9.95;;
33162;SDS011;29282;45.656;11.302;2023-08-24T06:47:36;13.88;;;9.90;;
33162;SDS011;29282;45.656;11.302;2023-08-24T06:50:02;11.13;;;10.02;;
33162;SDS011;29282;45.656;11.302;2023-08-24T06:52:28;11.63;;;10.48;;
33162;SDS011;29282;45.656;11.302;2023-08-24T06:54:53;11.52;;;10.32;;
33162;SDS011;29282;45.656;11.302;2023-08-24T06:57:21;11.50;;;10.40;;
33162;SDS011;29282;45.656;11.302;2023-08-24T06:59:46;10.70;;;9.70;;
33162;SDS011;29282;45.656;11.302;2023-08-24T07:02:12;13.48;;;10.43;;
33162;SDS011;29282;45.656;11.302;2023-08-24T07:04:38;11.50;;;9.80;;
33162;SDS011;29282;45.656;11.302;2023-08-24T07:07:05;12.07;;;10.60;;
33162;SDS011;29282;45.656;11.302;2023-08-24T07:09:31;11.45;;;9.52;;
33162;SDS011;29282;45.656;11.302;2023-08-24T07:11:56;11.02;;;10.00;;
33162;SDS011;29282;45.656;11.302;2023-08-24T07:14:22;11.27;;;10.23;;
33162;SDS011;29282;45.656;11.302;2023-08-24T07:16:47;11.57;;;9.52;;
33162;SDS011;29282;45.656;11.302;2023-08-24T07:19:13;10.88;;;9.90;;
33162;SDS011;29282;45.656;11.302;2023-08-24T07:21:39;10.23;;;9.23;;
33162;SDS011;29282;45.656;11.302;2023-08-24T07:24:04;11.15;;;9.52;;
33162;SDS011;29282;45.656;11.302;2023-08-24T07:26:33;12.02;;;10.23;;
33162;SDS011;29282;45.656;11.302;2023-08-24T07:28:58;11.57;;;10.00;;
33162;SDS011;29282;45.656;11.302;2023-08-24T07:31:24;10.80;;;9.65;;
33162;SDS011;29282;45.656;11.302;2023-08-24T07:33:50;12.70;;;9.63;;
33162;SDS011;29282;45.656;11.302;2023-08-24T07:36:18;12.73;;;9.70;;
33162;SDS011;29282;45.656;11.302;2023-08-24T07:38:47;14.35;;;9.90;;
33162;SDS011;29282;45.656;11.302;2023-08-24T07:41:12;15.82;;;10.48;;
33162;SDS011;29282;45.656;11.302;2023-08-24T07:43:38;15.95;;;10.30;;
33162;SDS011;29282;45.656;11.302;2023-08-24T07:46:03;12.85;;;9.63;;
33162;SDS011;29282;45.656;11.302;2023-08-24T07:48:30;11.48;;;9.75;;
33162;SDS011;29282;45.656;11.302;2023-08-24T07:50:55;14.77;;;9.23;;
33162;SDS011;29282;45.656;11.302;2023-08-24T07:53:21;9.80;;;8.85;;
33162;SDS011;29282;45.656;11.302;2023-08-24T07:55:47;10.93;;;9.90;;
33162;SDS011;29282;45.656;11.302;2023-08-24T07:58:12;11.40;;;9.88;;
33162;SDS011;29282;45.656;11.302;2023-08-24T08:00:38;12.38;;;9.35;;
33162;SDS011;29282;45.656;11.302;2023-08-24T08:03:06;10.05;;;9.13;;
33162;SDS011;29282;45.656;11.302;2023-08-24T08:05:31;15.10;;;10.25;;
33162;SDS011;29282;45.656;11.302;2023-08-24T08:07:57;12.05;;;9.20;;
33162;SDS011;29282;45.656;11.302;2023-08-24T08:10:22;10.07;;;8.93;;
33162;SDS011;29282;45.656;11.302;2023-08-24T08:12:48;11.93;;;9.00;;
33162;SDS011;29282;45.656;11.302;2023-08-24T08:15:13;10.77;;;9.70;;
33162;SDS011;29282;45.656;11.302;2023-08-24T08:17:39;11.27;;;9.57;;
33162;SDS011;29282;45.656;11.302;2023-08-24T08:20:04;11.85;;;9.63;;
33162;SDS011;29282;45.656;11.302;2023-08-24T08:22:31;9.95;;;8.95;;
33162;SDS011;29282;45.656;11.302;2023-08-24T08:25:00;11.35;;;10.15;;
33162;SDS011;29282;45.656;11.302;2023-08-24T08:27:26;9.75;;;8.85;;
33162;SDS011;29282;45.656;11.302;2023-08-24T08:29:52;11.68;;;9.65;;
33162;SDS011;29282;45.656;11.302;2023-08-24T08:32:17;11.88;;;9.32;;
33162;SDS011;29282;45.656;11.302;2023-08-24T08:34:43;11.68;;;9.55;;
33162;SDS011;29282;45.656;11.302;2023-08-24T08:37:08;10.30;;;9.30;;
33162;SDS011;29282;45.656;11.302;2023-08-24T08:39:34;10.45;;;9.35;;
33162;SDS011;29282;45.656;11.302;2023-08-24T08:41:59;11.65;;;8.88;;
33162;SDS011;29282;45.656;11.302;2023-08-24T08:44:28;10.68;;;9.68;;
33162;SDS011;29282;45.656;11.302;2023-08-24T08:46:56;10.70;;;9.60;;
33162;SDS011;29282;45.656;11.302;2023-08-24T08:49:22;9.93;;;8.90;;
33162;SDS011;29282;45.656;11.302;2023-08-24T08:51:48;10.70;;;8.73;;
33162;SDS011;29282;45.656;11.302;2023-08-24T08:54:16;11.13;;;9.15;;
33162;SDS011;29282;45.656;11.302;2023-08-24T08:56:42;11.13;;;9.52;;
33162;SDS011;29282;45.656;11.302;2023-08-24T08:59:08;11.18;;;9.63;;
33162;SDS011;29282;45.656;11.302;2023-08-24T09:01:36;11.10;;;9.57;;
33162;SDS011;29282;45.656;11.302;2023-08-24T09:04:02;10.00;;;9.10;;
33162;SDS011;29282;45.656;11.302;2023-08-24T09:06:29;10.43;;;9.48;;
33162;SDS011;29282;45.656;11.302;2023-08-24T09:08:56;10.93;;;9.32;;
33162;SDS011;29282;45.656;11.302;2023-08-24T09:11:22;9.98;;;8.98;;
33162;SDS011;29282;45.656;11.302;2023-08-24T09:13:49;14.60;;;9.30;;
33162;SDS011;29282;45.656;11.302;2023-08-24T09:16:14;13.07;;;9.23;;
33162;SDS011;29282;45.656;11.302;2023-08-24T09:18:43;10.52;;;8.98;;
33162;SDS011;29282;45.656;11.302;2023-08-24T09:21:11;9.90;;;8.98;;
33162;SDS011;29282;45.656;11.302;2023-08-24T09:23:58;9.98;;;9.02;;
33162;SDS011;29282;45.656;11.302;2023-08-24T09:26:29;9.60;;;8.60;;
33162;SDS011;29282;45.656;11.302;2023-08-24T09:28:59;10.40;;;8.82;;
33162;SDS011;29282;45.656;11.302;2023-08-24T09:31:43;9.10;;;8.20;;
33162;SDS011;29282;45.656;11.302;2023-08-24T09:34:09;9.85;;;8.95;;
33162;SDS011;29282;45.656;11.302;2023-08-24T09:36:36;10.10;;;9.15;;
33162;SDS011;29282;45.656;11.302;2023-08-24T09:39:05;10.02;;;9.05;;
33162;SDS011;29282;45.656;11.302;2023-08-24T09:44:16;9.85;;;8.95;;
33162;SDS011;29282;45.656;11.302;2023-08-24T09:46:43;9.50;;;8.40;;
33162;SDS011;29282;45.656;11.302;2023-08-24T09:49:09;10.63;;;9.43;;
33162;SDS011;29282;45.656;11.302;2023-08-24T09:51:37;9.55;;;8.65;;
33162;SDS011;29282;45.656;11.302;2023-08-24T09:54:07;9.95;;;8.95;;
33162;SDS011;29282;45.656;11.302;2023-08-24T09:56:35;10.13;;;9.20;;
33162;SDS011;29282;45.656;11.302;2023-08-24T09:59:14;10.13;;;9.13;;
33162;SDS011;29282;45.656;11.302;2023-08-24T10:01:45;9.57;;;8.68;;
33162;SDS011;29282;45.656;11.302;2023-08-24T10:04:13;9.88;;;8.90;;
33162;SDS011;29282;45.656;11.302;2023-08-24T10:06:40;9.98;;;8.98;;
33162;SDS011;29282;45.656;11.302;2023-08-24T10:09:08;10.13;;;8.88;;
33162;SDS011;29282;45.656;11.302;2023-08-24T10:11:48;11.60;;;8.63;;
33162;SDS011;29282;45.656;11.302;2023-08-24T10:17:13;9.38;;;8.38;;
33162;SDS011;29282;45.656;11.302;2023-08-24T10:19:39;10.07;;;9.00;;
33162;SDS011;29282;45.656;11.302;2023-08-24T10:22:06;10.05;;;9.02;;
33162;SDS011;29282;45.656;11.302;2023-08-24T10:24:33;9.00;;;8.20;;
33162;SDS011;29282;45.656;11.302;2023-08-24T10:27:00;10.20;;;8.68;;
33162;SDS011;29282;45.656;11.302;2023-08-24T10:29:27;9.20;;;8.40;;
33162;SDS011;29282;45.656;11.302;2023-08-24T10:31:53;9.93;;;9.02;;
33162;SDS011;29282;45.656;11.302;2023-08-24T10:34:20;9.93;;;8.93;;
33162;SDS011;29282;45.656;11.302;2023-08-24T10:36:47;9.10;;;8.18;;
33162;SDS011;29282;45.656;11.302;2023-08-24T10:39:13;9.30;;;8.48;;
33162;SDS011;29282;45.656;11.302;2023-08-24T10:41:46;9.23;;;8.38;;
33162;SDS011;29282;45.656;11.302;2023-08-24T10:44:23;10.20;;;9.18;;
33162;SDS011;29282;45.656;11.302;2023-08-24T10:49:37;11.95;;;8.48;;
33162;SDS011;29282;45.656;11.302;2023-08-24T10:52:25;9.50;;;8.48;;
33162;SDS011;29282;45.656;11.302;2023-08-24T10:54:54;9.82;;;8.93;;
33162;SDS011;29282;45.656;11.302;2023-08-24T10:57:26;9.90;;;8.40;;
33162;SDS011;29282;45.656;11.302;2023-08-24T11:02:24;10.48;;;8.57;;
33162;SDS011;29282;45.656;11.302;2023-08-24T11:05:06;9.18;;;8.27;;
33162;SDS011;29282;45.656;11.302;2023-08-24T11:07:51;9.50;;;8.60;;
33162;SDS011;29282;45.656;11.302;2023-08-24T11:10:21;9.50;;;8.60;;
33162;SDS011;29282;45.656;11.302;2023-08-24T11:15:30;9.48;;;8.43;;
33162;SDS011;29282;45.656;11.302;2023-08-24T11:23:27;11.20;;;7.70;;
33162;SDS011;29282;45.656;11.302;2023-08-24T11:25:53;8.77;;;7.93;;
33162;SDS011;29282;45.656;11.302;2023-08-24T11:28:26;10.55;;;8.32;;
33162;SDS011;29282;45.656;11.302;2023-08-24T11:30:53;11.50;;;8.63;;
33162;SDS011;29282;45.656;11.302;2023-08-24T11:33:26;9.77;;;8.25;;
33162;SDS011;29282;45.656;11.302;2023-08-24T11:35:55;9.18;;;7.85;;
33162;SDS011;29282;45.656;11.302;2023-08-24T11:38:21;8.82;;;8.02;;
33162;SDS011;29282;45.656;11.302;2023-08-24T11:40:46;9.48;;;8.10;;
33162;SDS011;29282;45.656;11.302;2023-08-24T11:43:12;9.32;;;8.38;;
33162;SDS011;29282;45.656;11.302;2023-08-24T11:45:39;9.35;;;8.27;;
33162;SDS011;29282;45.656;11.302;2023-08-24T11:48:07;11.93;;;8.13;;
33162;SDS011;29282;45.656;11.302;2023-08-24T11:50:33;8.88;;;8.07;;
33162;SDS011;29282;45.656;11.302;2023-08-24T11:53:01;10.35;;;8.07;;
33162;SDS011;29282;45.656;11.302;2023-08-24T11:55:27;9.20;;;8.30;;
33162;SDS011;29282;45.656;11.302;2023-08-24T11:57:53;9.15;;;8.25;;
33162;SDS011;29282;45.656;11.302;2023-08-24T12:00:20;9.27;;;8.45;;
33162;SDS011;29282;45.656;11.302;2023-08-24T12:02:46;9.63;;;8.52;;
33162;SDS011;29282;45.656;11.302;2023-08-24T12:05:26;9.30;;;8.30;;
33162;SDS011;29282;45.656;11.302;2023-08-24T12:07:53;10.80;;;7.90;;
33162;SDS011;29282;45.656;11.302;2023-08-24T12:10:21;10.02;;;8.60;;
33162;SDS011;29282;45.656;11.302;2023-08-24T12:12:47;9.48;;;8.52;;
33162;SDS011;29282;45.656;11.302;2023-08-24T12:15:17;9.73;;;8.18;;
33162;SDS011;29282;45.656;11.302;2023-08-24T12:17:45;11.73;;;8.40;;
33162;SDS011;29282;45.656;11.302;2023-08-24T12:20:21;9.32;;;7.90;;
33162;SDS011;29282;45.656;11.302;2023-08-24T12:22:51;9.35;;;8.00;;
33162;SDS011;29282;45.656;11.302;2023-08-24T12:25:17;8.73;;;7.82;;
33162;SDS011;29282;45.656;11.302;2023-08-24T12:27:43;9.38;;;7.70;;
33162;SDS011;29282;45.656;11.302;2023-08-24T12:30:10;9.02;;;7.93;;
33162;SDS011;29282;45.656;11.302;2023-08-24T12:32:42;8.40;;;7.63;;
33162;SDS011;29282;45.656;11.302;2023-08-24T12:35:13;8.85;;;7.95;;
33162;SDS011;29282;45.656;11.302;2023-08-24T12:37:39;9.18;;;8.27;;
33162;SDS011;29282;45.656;11.302;2023-08-24T12:40:06;8.32;;;7.53;;
33162;SDS011;29282;45.656;11.302;2023-08-24T12:42:32;7.75;;;7.10;;
33162;SDS011;29282;45.656;11.302;2023-08-24T12:44:57;9.20;;;7.85;;
33162;SDS011;29282;45.656;11.302;2023-08-24T12:47:23;8.15;;;7.10;;
33162;SDS011;29282;45.656;11.302;2023-08-24T12:49:48;8.80;;;7.47;;
33162;SDS011;29282;45.656;11.302;2023-08-24T12:52:15;7.90;;;7.20;;
33162;SDS011;29282;45.656;11.302;2023-08-24T12:54:41;9.00;;;8.00;;
33162;SDS011;29282;45.656;11.302;2023-08-24T12:57:07;8.20;;;7.40;;
33162;SDS011;29282;45.656;11.302;2023-08-24T12:59:33;8.73;;;7.65;;
33162;SDS011;29282;45.656;11.302;2023-08-24T13:01:58;8.07;;;7.28;;
33162;SDS011;29282;45.656;11.302;2023-08-24T13:04:24;9.13;;;7.60;;
33162;SDS011;29282;45.656;11.302;2023-08-24T13:06:49;9.07;;;7.57;;
33162;SDS011;29282;45.656;11.302;2023-08-24T13:09:18;9.85;;;7.38;;
33162;SDS011;29282;45.656;11.302;2023-08-24T13:11:43;8.35;;;7.38;;
33162;SDS011;29282;45.656;11.302;2023-08-24T13:14:09;8.48;;;7.68;;
33162;SDS011;29282;45.656;11.302;2023-08-24T13:16:34;7.47;;;6.85;;
33162;SDS011;29282;45.656;11.302;2023-08-24T13:19:00;9.35;;;7.60;;
33162;SDS011;29282;45.656;11.302;2023-08-24T13:21:25;8.35;;;7.55;;
33162;SDS011;29282;45.656;11.302;2023-08-24T13:23:51;9.32;;;7.45;;
33162;SDS011;29282;45.656;11.302;2023-08-24T13:26:17;8.10;;;7.30;;
33162;SDS011;29282;45.656;11.302;2023-08-24T13:28:49;8.80;;;8.00;;
33162;SDS011;29282;45.656;11.302;2023-08-24T13:31:15;8.40;;;7.68;;
33162;SDS011;29282;45.656;11.302;2023-08-24T13:33:41;9.13;;;7.63;;
33162;SDS011;29282;45.656;11.302;2023-08-24T13:36:06;9.18;;;8.27;;
33162;SDS011;29282;45.656;11.302;2023-08-24T13:38:32;10.35;;;7.57;;
33162;SDS011;29282;45.656;11.302;2023-08-24T13:40:57;8.98;;;7.70;;
33162;SDS011;29282;45.656;11.302;2023-08-24T13:43:26;8.52;;;7.40;;
33162;SDS011;29282;45.656;11.302;2023-08-24T13:45:51;8.93;;;7.38;;
33162;SDS011;29282;45.656;11.302;2023-08-24T13:48:17;8.45;;;7.57;;
33162;SDS011;29282;45.656;11.302;2023-08-24T13:50:48;10.95;;;7.20;;
33162;SDS011;29282;45.656;11.302;2023-08-24T13:53:15;10.32;;;7.50;;
33162;SDS011;29282;45.656;11.302;2023-08-24T13:55:44;7.82;;;7.03;;
33162;SDS011;29282;45.656;11.302;2023-08-24T13:58:09;8.57;;;7.53;;
33162;SDS011;29282;45.656;11.302;2023-08-24T14:00:36;8.13;;;7.43;;
33162;SDS011;29282;45.656;11.302;2023-08-24T14:03:04;8.60;;;7.80;;
33162;SDS011;29282;45.656;11.302;2023-08-24T14:05:30;8.00;;;7.30;;
33162;SDS011;29282;45.656;11.302;2023-08-24T14:07:55;8.50;;;7.47;;
33162;SDS011;29282;45.656;11.302;2023-08-24T14:10:21;8.20;;;7.32;;
33162;SDS011;29282;45.656;11.302;2023-08-24T14:12:46;8.85;;;7.78;;
33162;SDS011;29282;45.656;11.302;2023-08-24T14:15:12;8.90;;;7.63;;
33162;SDS011;29282;45.656;11.302;2023-08-24T14:17:37;8.27;;;7.47;;
33162;SDS011;29282;45.656;11.302;2023-08-24T14:20:03;8.30;;;7.47;;
33162;SDS011;29282;45.656;11.302;2023-08-24T14:22:29;8.55;;;7.75;;
33162;SDS011;29282;45.656;11.302;2023-08-24T14:24:55;8.48;;;7.57;;
33162;SDS011;29282;45.656;11.302;2023-08-24T14:27:20;8.45;;;7.50;;
33162;SDS011;29282;45.656;11.302;2023-08-24T14:29:46;8.15;;;7.35;;
33162;SDS011;29282;45.656;11.302;2023-08-24T14:32:11;7.97;;;7.18;;
33162;SDS011;29282;45.656;11.302;2023-08-24T14:34:36;8.27;;;7.18;;
33162;SDS011;29282;45.656;11.302;2023-08-24T14:37:02;8.43;;;7.60;;
33162;SDS011;29282;45.656;11.302;2023-08-24T14:39:28;8.77;;;7.75;;
33162;SDS011;29282;45.656;11.302;2023-08-24T14:41:53;8.43;;;7.50;;
33162;SDS011;29282;45.656;11.302;2023-08-24T14:44:19;8.93;;;8.02;;
33162;SDS011;29282;45.656;11.302;2023-08-24T14:46:45;8.30;;;7.18;;
33162;SDS011;29282;45.656;11.302;2023-08-24T14:49:11;8.25;;;7.50;;
33162;SDS011;29282;45.656;11.302;2023-08-24T14:51:36;8.05;;;7.22;;